createdAt,value
2022-08-26T00:04:37.601Z,80.38
2022-08-26T00:14:59.262Z,80.24
2022-08-26T00:25:22.718Z,80.47
2022-08-26T00:35:45.321Z,81.90
2022-08-26T00:46:13.941Z,81.81
2022-08-26T00:56:48.592Z,83.05
2022-08-26T01:07:10.580Z,82.70
2022-08-26T01:17:33.749Z,84.08
2022-08-26T01:27:58.788Z,84.03
2022-08-26T01:38:20.539Z,82.99
2022-08-26T01:48:46.810Z,84.79
2022-08-26T01:59:13.565Z,83.80
2022-08-26T02:09:42.548Z,85.02
2022-08-26T02:20:05.241Z,85.76
2022-08-26T02:30:32.067Z,85.63
2022-08-26T02:40:53.614Z,85.20
2022-08-26T02:51:15.182Z,86.62
2022-08-26T03:01:37.171Z,87.44
2022-08-26T03:11:59.620Z,87.42
2022-08-26T03:22:21.394Z,88.08
2022-08-26T03:32:44.511Z,86.59
2022-08-26T03:43:07.511Z,89.37
2022-08-26T03:53:31.422Z,90.76
2022-08-26T04:04:00.304Z,89.59
2022-08-26T04:14:24.490Z,91.49
2022-08-26T04:24:46.402Z,91.08
2022-08-26T04:35:08.245Z,90.72
2022-08-26T04:45:30.687Z,93.26
2022-08-26T04:55:52.485Z,94.31
2022-08-26T05:06:17.214Z,94.10
2022-08-26T05:16:40.707Z,94.04
2022-08-26T05:27:03.199Z,93.32
2022-08-26T05:37:33.115Z,93.33
2022-08-26T05:47:56.017Z,93.44
2022-08-26T05:58:20.912Z,92.45
2022-08-26T06:08:43.814Z,91.52
2022-08-26T06:19:11.067Z,91.74
2022-08-26T06:29:34.966Z,90.09
2022-08-26T06:39:57.861Z,89.42
2022-08-26T06:50:19.417Z,88.37
2022-08-26T07:00:41.634Z,88.73
2022-08-26T07:11:11.204Z,89.17
2022-08-26T07:21:34.050Z,86.59
2022-08-26T07:31:56.318Z,88.44
2022-08-26T07:42:20.427Z,84.44
2022-08-26T07:52:42.753Z,83.97
2022-08-26T08:03:06.174Z,84.08
2022-08-26T08:13:29.281Z,81.33
2022-08-26T08:23:55.462Z,81.78
2022-08-26T08:34:18.358Z,79.10
2022-08-26T08:44:44.291Z,77.64
2022-08-26T08:55:18.110Z,77.06
2022-08-26T09:05:48.568Z,77.28
2022-08-26T09:16:19.073Z,76.85
2022-08-26T09:26:48.123Z,76.17
2022-08-26T09:37:09.729Z,81.58
2022-08-26T09:47:53.166Z,83.69
2022-08-26T09:58:31.112Z,84.62
2022-08-26T10:09:02.651Z,83.48
2022-08-26T10:19:55.979Z,82.59
2022-08-26T10:30:29.232Z,81.88
2022-08-26T10:40:56.660Z,79.63
2022-08-26T10:51:26.847Z,80.56
2022-08-26T11:02:08.732Z,80.57
2022-08-26T11:12:36.392Z,80.15
2022-08-26T11:23:21.220Z,79.15
2022-08-26T11:33:50.982Z,78.25
2022-08-26T11:44:18.710Z,78.93
2022-08-26T11:54:40.780Z,77.76
2022-08-26T12:05:03.070Z,76.82
2022-08-26T12:15:26.403Z,78.73
2022-08-26T12:25:54.087Z,79.94
2022-08-26T12:36:22.387Z,79.71
2022-08-26T12:46:47.887Z,79.84
2022-08-26T12:57:12.906Z,80.29
2022-08-26T13:07:34.531Z,82.40
2022-08-26T13:17:58.245Z,83.51
2022-08-26T13:28:20.132Z,86.38
2022-08-26T13:38:41.849Z,86.59
2022-08-26T13:49:10.723Z,85.50
2022-08-26T13:59:32.518Z,86.05
2022-08-26T14:09:54.493Z,85.46
2022-08-26T14:20:21.064Z,86.50
2022-08-26T14:30:47.482Z,83.71
2022-08-26T14:41:10.029Z,80.13
2022-08-26T14:51:31.734Z,76.22
2022-08-26T15:01:54.802Z,76.12
2022-08-26T15:12:16.533Z,73.97
2022-08-26T15:22:39.438Z,74.69
2022-08-26T15:33:01.047Z,75.60
2022-08-26T15:43:28.774Z,73.30
2022-08-26T15:53:51.357Z,71.64
2022-08-26T16:04:13.969Z,73.09
2022-08-26T16:14:35.547Z,72.02
2022-08-26T16:24:57.836Z,74.33
2022-08-26T16:35:19.448Z,74.59
2022-08-26T16:45:40.983Z,75.29
2022-08-26T16:56:04.108Z,77.14
2022-08-26T17:06:25.677Z,77.44
2022-08-26T17:16:51.200Z,78.43
2022-08-26T17:27:15.264Z,79.11
2022-08-26T17:37:36.909Z,79.85
2022-08-26T17:47:59.234Z,81.71
2022-08-26T17:58:23.247Z,83.02
2022-08-26T18:08:46.077Z,84.98
2022-08-26T18:19:08.295Z,85.24
2022-08-26T18:29:29.902Z,85.42
2022-08-26T18:39:51.494Z,86.35
2022-08-26T18:50:13.354Z,84.73
2022-08-26T19:00:34.895Z,86.30
2022-08-26T19:10:56.439Z,86.68
2022-08-26T19:21:19.582Z,86.64
2022-08-26T19:31:42.240Z,88.08
2022-08-26T19:42:05.802Z,88.45
2022-08-26T19:52:30.017Z,87.19
2022-08-26T20:02:52.907Z,86.90
2022-08-26T20:13:14.769Z,88.12
2022-08-26T20:23:36.988Z,88.60
2022-08-26T20:33:58.864Z,89.72
2022-08-26T20:44:22.029Z,88.84
2022-08-26T20:54:43.651Z,90.08
2022-08-26T21:05:06.358Z,89.41
2022-08-26T21:15:28.004Z,88.88
2022-08-26T21:25:49.889Z,87.46
2022-08-26T21:36:12.571Z,87.49
2022-08-26T21:46:37.408Z,88.35
2022-08-26T21:56:59.056Z,88.25
2022-08-26T22:07:21.314Z,87.87
2022-08-26T22:17:42.893Z,86.32
2022-08-26T22:28:05.020Z,86.99
2022-08-26T22:38:26.587Z,86.36
2022-08-26T22:48:53.763Z,85.99
2022-08-26T22:59:16.473Z,85.91
2022-08-26T23:09:38.055Z,85.52
2022-08-26T23:19:59.807Z,84.20
2022-08-26T23:30:25.531Z,84.64
2022-08-26T23:40:48.439Z,83.43
2022-08-26T23:51:29.869Z,82.86
